Terminal Aerodrome Forecast
Issued by NWS

Home | Current Version | Previous Version | Text Only | Print | Product List | Glossary On
Versions: 1 2 3 4 5 6 7 8 9 10 11 12 13 14 15 16 17 18
000
FTUS45 KFGZ 301400 AAA
TAFGCN
TAF AMD
KGCN 301448Z 3015/3112 08010KT 6SM -RA BR OVC035
      TEMPO 3015/3019 3SM -RA BR BKN025
     FM301900 11008KT 3SM -RA BR BKN025=

USA.gov is the U.S. government's official web portal to all federal, state and local government web resources and services.